sensor_id;sensor_type;location;lat;lon;timestamp;P1;durP1;ratioP1;P2;durP2;ratioP2
79066;SDS011;68470;50.224;14.348;2023-11-21T00:02:04;2.40;;;1.30;;
79066;SDS011;68470;50.224;14.348;2023-11-21T00:04:30;1.75;;;1.05;;
79066;SDS011;68470;50.224;14.348;2023-11-21T00:06:55;2.33;;;1.30;;
79066;SDS011;68470;50.224;14.348;2023-11-21T00:09:21;2.10;;;1.10;;
79066;SDS011;68470;50.224;14.348;2023-11-21T00:11:47;1.85;;;1.00;;
79066;SDS011;68470;50.224;14.348;2023-11-21T00:14:13;1.60;;;1.10;;
79066;SDS011;68470;50.224;14.348;2023-11-21T00:16:40;2.08;;;1.13;;
79066;SDS011;68470;50.224;14.348;2023-11-21T00:19:06;2.17;;;1.40;;
79066;SDS011;68470;50.224;14.348;2023-11-21T00:21:32;1.95;;;1.15;;
79066;SDS011;68470;50.224;14.348;2023-11-21T00:23:58;2.08;;;1.10;;
79066;SDS011;68470;50.224;14.348;2023-11-21T00:26:23;2.30;;;1.30;;
79066;SDS011;68470;50.224;14.348;2023-11-21T00:28:50;1.83;;;1.05;;
79066;SDS011;68470;50.224;14.348;2023-11-21T00:31:15;3.58;;;1.38;;
79066;SDS011;68470;50.224;14.348;2023-11-21T00:33:41;1.92;;;1.05;;
79066;SDS011;68470;50.224;14.348;2023-11-21T00:36:08;2.53;;;1.40;;
79066;SDS011;68470;50.224;14.348;2023-11-21T00:38:35;2.20;;;1.30;;
79066;SDS011;68470;50.224;14.348;2023-11-21T00:41:01;2.47;;;1.20;;
79066;SDS011;68470;50.224;14.348;2023-11-21T00:43:28;2.50;;;1.65;;
79066;SDS011;68470;50.224;14.348;2023-11-21T00:45:53;1.95;;;1.20;;
79066;SDS011;68470;50.224;14.348;2023-11-21T00:48:19;2.00;;;1.20;;
79066;SDS011;68470;50.224;14.348;2023-11-21T00:50:44;2.00;;;1.30;;
79066;SDS011;68470;50.224;14.348;2023-11-21T00:53:10;1.80;;;1.10;;
79066;SDS011;68470;50.224;14.348;2023-11-21T00:55:36;2.05;;;1.10;;
79066;SDS011;68470;50.224;14.348;2023-11-21T00:58:03;2.10;;;1.10;;
79066;SDS011;68470;50.224;14.348;2023-11-21T01:00:29;2.08;;;1.25;;
79066;SDS011;68470;50.224;14.348;2023-11-21T01:02:55;2.03;;;1.10;;
79066;SDS011;68470;50.224;14.348;2023-11-21T01:05:21;2.42;;;1.77;;
79066;SDS011;68470;50.224;14.348;2023-11-21T01:07:46;2.00;;;1.20;;
79066;SDS011;68470;50.224;14.348;2023-11-21T01:10:12;1.80;;;0.90;;
79066;SDS011;68470;50.224;14.348;2023-11-21T01:12:38;1.67;;;0.93;;
79066;SDS011;68470;50.224;14.348;2023-11-21T01:15:04;1.70;;;1.00;;
79066;SDS011;68470;50.224;14.348;2023-11-21T01:17:34;1.77;;;1.20;;
79066;SDS011;68470;50.224;14.348;2023-11-21T01:20:00;2.63;;;1.50;;
79066;SDS011;68470;50.224;14.348;2023-11-21T01:22:27;1.98;;;1.20;;
79066;SDS011;68470;50.224;14.348;2023-11-21T01:24:53;1.65;;;1.00;;
79066;SDS011;68470;50.224;14.348;2023-11-21T01:27:19;1.70;;;1.10;;
79066;SDS011;68470;50.224;14.348;2023-11-21T01:29:44;1.92;;;1.30;;
79066;SDS011;68470;50.224;14.348;2023-11-21T01:32:10;1.45;;;1.00;;
79066;SDS011;68470;50.224;14.348;2023-11-21T01:34:36;2.15;;;1.02;;
79066;SDS011;68470;50.224;14.348;2023-11-21T01:37:02;2.00;;;1.08;;
79066;SDS011;68470;50.224;14.348;2023-11-21T01:39:30;2.30;;;1.55;;
79066;SDS011;68470;50.224;14.348;2023-11-21T01:41:55;2.75;;;1.70;;
79066;SDS011;68470;50.224;14.348;2023-11-21T01:44:23;2.80;;;1.30;;
79066;SDS011;68470;50.224;14.348;2023-11-21T01:46:50;2.00;;;1.10;;
79066;SDS011;68470;50.224;14.348;2023-11-21T01:49:17;2.85;;;1.70;;
79066;SDS011;68470;50.224;14.348;2023-11-21T01:51:47;2.17;;;1.20;;
79066;SDS011;68470;50.224;14.348;2023-11-21T01:54:17;1.65;;;1.00;;
79066;SDS011;68470;50.224;14.348;2023-11-21T01:56:45;1.65;;;1.10;;
79066;SDS011;68470;50.224;14.348;2023-11-21T01:59:12;2.22;;;1.30;;
79066;SDS011;68470;50.224;14.348;2023-11-21T02:01:43;1.67;;;0.95;;
79066;SDS011;68470;50.224;14.348;2023-11-21T02:04:09;1.73;;;0.90;;
79066;SDS011;68470;50.224;14.348;2023-11-21T02:06:35;2.15;;;1.30;;
79066;SDS011;68470;50.224;14.348;2023-11-21T02:09:00;1.80;;;0.90;;
79066;SDS011;68470;50.224;14.348;2023-11-21T02:11:26;1.90;;;1.10;;
79066;SDS011;68470;50.224;14.348;2023-11-21T02:13:53;1.95;;;1.05;;
79066;SDS011;68470;50.224;14.348;2023-11-21T02:16:19;2.15;;;1.58;;
79066;SDS011;68470;50.224;14.348;2023-11-21T02:18:46;2.13;;;1.17;;
79066;SDS011;68470;50.224;14.348;2023-11-21T02:21:14;1.90;;;1.60;;
79066;SDS011;68470;50.224;14.348;2023-11-21T02:23:39;1.50;;;0.98;;
79066;SDS011;68470;50.224;14.348;2023-11-21T02:26:10;2.05;;;1.60;;
79066;SDS011;68470;50.224;14.348;2023-11-21T02:28:36;2.22;;;1.00;;
79066;SDS011;68470;50.224;14.348;2023-11-21T02:31:02;2.30;;;1.10;;
79066;SDS011;68470;50.224;14.348;2023-11-21T02:33:29;1.55;;;1.00;;
79066;SDS011;68470;50.224;14.348;2023-11-21T02:36:02;2.10;;;1.10;;
79066;SDS011;68470;50.224;14.348;2023-11-21T02:38:27;1.52;;;1.00;;
79066;SDS011;68470;50.224;14.348;2023-11-21T02:40:53;2.40;;;1.17;;
79066;SDS011;68470;50.224;14.348;2023-11-21T02:43:19;2.00;;;1.10;;
79066;SDS011;68470;50.224;14.348;2023-11-21T02:45:45;1.80;;;1.00;;
79066;SDS011;68470;50.224;14.348;2023-11-21T02:48:10;2.00;;;1.20;;
79066;SDS011;68470;50.224;14.348;2023-11-21T02:50:36;2.00;;;1.10;;
79066;SDS011;68470;50.224;14.348;2023-11-21T02:53:02;2.65;;;1.10;;
79066;SDS011;68470;50.224;14.348;2023-11-21T02:55:31;2.17;;;1.15;;
79066;SDS011;68470;50.224;14.348;2023-11-21T02:57:59;1.50;;;0.90;;
79066;SDS011;68470;50.224;14.348;2023-11-21T03:00:25;1.90;;;1.10;;
79066;SDS011;68470;50.224;14.348;2023-11-21T03:02:51;1.85;;;1.10;;
79066;SDS011;68470;50.224;14.348;2023-11-21T03:05:17;1.70;;;1.00;;
79066;SDS011;68470;50.224;14.348;2023-11-21T03:07:42;1.75;;;1.10;;
79066;SDS011;68470;50.224;14.348;2023-11-21T03:10:08;1.80;;;1.10;;
79066;SDS011;68470;50.224;14.348;2023-11-21T03:12:36;2.10;;;1.40;;
79066;SDS011;68470;50.224;14.348;2023-11-21T03:15:04;1.70;;;0.88;;
79066;SDS011;68470;50.224;14.348;2023-11-21T03:17:31;1.88;;;1.05;;
79066;SDS011;68470;50.224;14.348;2023-11-21T03:19:57;2.10;;;1.45;;
79066;SDS011;68470;50.224;14.348;2023-11-21T03:22:22;1.33;;;0.88;;
79066;SDS011;68470;50.224;14.348;2023-11-21T03:24:48;1.90;;;0.90;;
79066;SDS011;68470;50.224;14.348;2023-11-21T03:27:14;1.83;;;1.10;;
79066;SDS011;68470;50.224;14.348;2023-11-21T03:29:39;2.40;;;1.02;;
79066;SDS011;68470;50.224;14.348;2023-11-21T03:32:05;1.35;;;0.90;;
79066;SDS011;68470;50.224;14.348;2023-11-21T03:34:32;1.90;;;1.23;;
79066;SDS011;68470;50.224;14.348;2023-11-21T03:36:58;2.05;;;1.20;;
79066;SDS011;68470;50.224;14.348;2023-11-21T03:39:24;2.22;;;1.15;;
79066;SDS011;68470;50.224;14.348;2023-11-21T03:41:50;1.80;;;1.05;;
79066;SDS011;68470;50.224;14.348;2023-11-21T03:44:17;1.85;;;0.93;;
79066;SDS011;68470;50.224;14.348;2023-11-21T03:46:43;1.80;;;1.40;;
79066;SDS011;68470;50.224;14.348;2023-11-21T03:49:09;2.15;;;1.10;;
79066;SDS011;68470;50.224;14.348;2023-11-21T03:51:36;1.70;;;0.90;;
79066;SDS011;68470;50.224;14.348;2023-11-21T03:54:02;1.50;;;0.90;;
79066;SDS011;68470;50.224;14.348;2023-11-21T03:56:28;2.35;;;0.98;;
79066;SDS011;68470;50.224;14.348;2023-11-21T03:58:54;1.70;;;0.90;;
79066;SDS011;68470;50.224;14.348;2023-11-21T04:01:20;2.47;;;1.27;;
79066;SDS011;68470;50.224;14.348;2023-11-21T04:03:48;2.53;;;1.10;;
79066;SDS011;68470;50.224;14.348;2023-11-21T04:06:14;1.50;;;0.93;;
79066;SDS011;68470;50.224;14.348;2023-11-21T04:08:39;2.00;;;1.10;;
79066;SDS011;68470;50.224;14.348;2023-11-21T04:11:05;1.75;;;0.90;;
79066;SDS011;68470;50.224;14.348;2023-11-21T04:13:31;1.83;;;0.95;;
79066;SDS011;68470;50.224;14.348;2023-11-21T04:15:56;1.63;;;1.00;;
79066;SDS011;68470;50.224;14.348;2023-11-21T04:18:22;1.45;;;0.80;;
79066;SDS011;68470;50.224;14.348;2023-11-21T04:20:50;1.63;;;0.98;;
79066;SDS011;68470;50.224;14.348;2023-11-21T04:23:16;1.58;;;0.82;;
79066;SDS011;68470;50.224;14.348;2023-11-21T04:25:42;1.65;;;0.90;;
79066;SDS011;68470;50.224;14.348;2023-11-21T04:28:08;1.83;;;1.02;;
79066;SDS011;68470;50.224;14.348;2023-11-21T04:30:33;1.90;;;1.08;;
79066;SDS011;68470;50.224;14.348;2023-11-21T04:32:59;1.90;;;0.93;;
79066;SDS011;68470;50.224;14.348;2023-11-21T04:35:24;2.10;;;1.08;;
79066;SDS011;68470;50.224;14.348;2023-11-21T04:37:50;2.13;;;1.30;;
79066;SDS011;68470;50.224;14.348;2023-11-21T04:40:16;2.03;;;1.20;;
79066;SDS011;68470;50.224;14.348;2023-11-21T04:42:43;2.10;;;1.10;;
79066;SDS011;68470;50.224;14.348;2023-11-21T04:45:09;1.90;;;1.00;;
79066;SDS011;68470;50.224;14.348;2023-11-21T04:47:36;1.35;;;0.75;;
79066;SDS011;68470;50.224;14.348;2023-11-21T04:50:02;1.67;;;1.00;;
79066;SDS011;68470;50.224;14.348;2023-11-21T04:52:29;1.65;;;1.00;;
79066;SDS011;68470;50.224;14.348;2023-11-21T04:54:54;2.35;;;1.23;;
79066;SDS011;68470;50.224;14.348;2023-11-21T04:57:23;1.40;;;0.80;;
79066;SDS011;68470;50.224;14.348;2023-11-21T04:59:48;1.80;;;0.82;;
79066;SDS011;68470;50.224;14.348;2023-11-21T05:02:15;3.13;;;1.30;;
79066;SDS011;68470;50.224;14.348;2023-11-21T05:04:40;1.98;;;1.02;;
79066;SDS011;68470;50.224;14.348;2023-11-21T05:07:08;1.50;;;0.90;;
79066;SDS011;68470;50.224;14.348;2023-11-21T05:09:33;1.80;;;1.08;;
79066;SDS011;68470;50.224;14.348;2023-11-21T05:12:01;1.48;;;0.90;;
79066;SDS011;68470;50.224;14.348;2023-11-21T05:14:27;1.90;;;1.00;;
79066;SDS011;68470;50.224;14.348;2023-11-21T05:16:52;1.65;;;1.10;;
79066;SDS011;68470;50.224;14.348;2023-11-21T05:19:18;1.63;;;1.00;;
79066;SDS011;68470;50.224;14.348;2023-11-21T05:21:44;1.35;;;1.00;;
79066;SDS011;68470;50.224;14.348;2023-11-21T05:24:09;1.48;;;0.90;;
79066;SDS011;68470;50.224;14.348;2023-11-21T05:26:35;1.92;;;0.93;;
79066;SDS011;68470;50.224;14.348;2023-11-21T05:29:01;1.40;;;0.82;;
79066;SDS011;68470;50.224;14.348;2023-11-21T05:31:27;1.60;;;1.00;;
79066;SDS011;68470;50.224;14.348;2023-11-21T05:33:52;1.95;;;1.00;;
79066;SDS011;68470;50.224;14.348;2023-11-21T05:36:18;2.05;;;1.10;;
79066;SDS011;68470;50.224;14.348;2023-11-21T05:38:44;2.50;;;1.10;;
79066;SDS011;68470;50.224;14.348;2023-11-21T05:41:09;1.98;;;1.02;;
79066;SDS011;68470;50.224;14.348;2023-11-21T05:46:04;1.60;;;1.17;;
79066;SDS011;68470;50.224;14.348;2023-11-21T05:48:30;1.67;;;1.00;;
79066;SDS011;68470;50.224;14.348;2023-11-21T05:50:56;2.10;;;0.93;;
79066;SDS011;68470;50.224;14.348;2023-11-21T05:53:22;1.77;;;0.98;;
79066;SDS011;68470;50.224;14.348;2023-11-21T05:55:48;1.27;;;0.90;;
79066;SDS011;68470;50.224;14.348;2023-11-21T05:58:13;1.63;;;0.85;;
79066;SDS011;68470;50.224;14.348;2023-11-21T06:00:39;1.95;;;1.50;;
79066;SDS011;68470;50.224;14.348;2023-11-21T06:03:04;2.17;;;1.00;;
79066;SDS011;68470;50.224;14.348;2023-11-21T06:05:32;2.05;;;0.93;;
79066;SDS011;68470;50.224;14.348;2023-11-21T06:07:58;1.70;;;1.00;;
79066;SDS011;68470;50.224;14.348;2023-11-21T06:10:24;1.25;;;0.80;;
79066;SDS011;68470;50.224;14.348;2023-11-21T06:12:50;2.15;;;1.23;;
79066;SDS011;68470;50.224;14.348;2023-11-21T06:15:16;1.33;;;0.80;;
79066;SDS011;68470;50.224;14.348;2023-11-21T06:17:44;1.58;;;0.90;;
79066;SDS011;68470;50.224;14.348;2023-11-21T06:20:10;1.15;;;0.77;;
79066;SDS011;68470;50.224;14.348;2023-11-21T06:22:40;1.80;;;1.10;;
79066;SDS011;68470;50.224;14.348;2023-11-21T06:25:07;1.52;;;1.00;;
79066;SDS011;68470;50.224;14.348;2023-11-21T06:27:38;1.50;;;0.90;;
79066;SDS011;68470;50.224;14.348;2023-11-21T06:30:11;1.70;;;0.90;;
79066;SDS011;68470;50.224;14.348;2023-11-21T06:32:38;2.13;;;1.25;;
79066;SDS011;68470;50.224;14.348;2023-11-21T06:35:11;1.83;;;1.00;;
79066;SDS011;68470;50.224;14.348;2023-11-21T06:37:37;1.42;;;1.05;;
79066;SDS011;68470;50.224;14.348;2023-11-21T06:40:03;1.65;;;0.85;;
79066;SDS011;68470;50.224;14.348;2023-11-21T06:42:29;1.55;;;1.13;;
79066;SDS011;68470;50.224;14.348;2023-11-21T06:44:55;1.58;;;0.82;;
79066;SDS011;68470;50.224;14.348;2023-11-21T06:47:22;1.38;;;1.00;;
79066;SDS011;68470;50.224;14.348;2023-11-21T06:49:51;1.88;;;1.00;;
79066;SDS011;68470;50.224;14.348;2023-11-21T06:52:18;1.88;;;1.00;;
79066;SDS011;68470;50.224;14.348;2023-11-21T06:54:44;1.52;;;0.80;;
79066;SDS011;68470;50.224;14.348;2023-11-21T06:57:10;1.83;;;0.98;;
79066;SDS011;68470;50.224;14.348;2023-11-21T06:59:37;1.50;;;1.15;;
79066;SDS011;68470;50.224;14.348;2023-11-21T07:02:03;1.45;;;0.75;;
79066;SDS011;68470;50.224;14.348;2023-11-21T07:04:35;1.50;;;1.00;;
79066;SDS011;68470;50.224;14.348;2023-11-21T07:07:02;1.23;;;0.80;;
79066;SDS011;68470;50.224;14.348;2023-11-21T07:09:28;1.60;;;0.90;;
79066;SDS011;68470;50.224;14.348;2023-11-21T07:11:55;1.52;;;0.77;;
79066;SDS011;68470;50.224;14.348;2023-11-21T07:14:21;2.08;;;0.90;;
79066;SDS011;68470;50.224;14.348;2023-11-21T07:16:47;5.47;;;3.25;;
79066;SDS011;68470;50.224;14.348;2023-11-21T07:19:13;6.53;;;4.10;;
79066;SDS011;68470;50.224;14.348;2023-11-21T07:21:39;8.35;;;5.68;;
79066;SDS011;68470;50.224;14.348;2023-11-21T07:24:06;6.88;;;4.22;;
79066;SDS011;68470;50.224;14.348;2023-11-21T07:26:33;5.95;;;4.55;;
79066;SDS011;68470;50.224;14.348;2023-11-21T07:28:59;6.57;;;4.40;;
79066;SDS011;68470;50.224;14.348;2023-11-21T07:31:28;8.48;;;4.50;;
79066;SDS011;68470;50.224;14.348;2023-11-21T07:33:55;5.45;;;4.30;;
79066;SDS011;68470;50.224;14.348;2023-11-21T07:36:23;5.40;;;3.65;;
79066;SDS011;68470;50.224;14.348;2023-11-21T07:38:50;9.20;;;4.30;;
79066;SDS011;68470;50.224;14.348;2023-11-21T07:41:16;5.90;;;3.70;;
79066;SDS011;68470;50.224;14.348;2023-11-21T07:43:43;10.88;;;4.75;;
79066;SDS011;68470;50.224;14.348;2023-11-21T07:46:10;9.75;;;3.80;;
79066;SDS011;68470;50.224;14.348;2023-11-21T07:48:38;10.82;;;4.13;;
79066;SDS011;68470;50.224;14.348;2023-11-21T07:51:04;7.85;;;3.88;;
79066;SDS011;68470;50.224;14.348;2023-11-21T07:53:30;9.40;;;4.13;;
79066;SDS011;68470;50.224;14.348;2023-11-21T07:55:56;8.48;;;3.55;;
79066;SDS011;68470;50.224;14.348;2023-11-21T07:58:23;8.32;;;4.22;;
79066;SDS011;68470;50.224;14.348;2023-11-21T08:00:52;6.72;;;4.32;;
79066;SDS011;68470;50.224;14.348;2023-11-21T08:05:43;5.93;;;3.15;;
79066;SDS011;68470;50.224;14.348;2023-11-21T08:08:09;4.75;;;3.08;;
79066;SDS011;68470;50.224;14.348;2023-11-21T08:10:34;5.50;;;3.67;;
79066;SDS011;68470;50.224;14.348;2023-11-21T08:13:01;5.03;;;2.88;;
79066;SDS011;68470;50.224;14.348;2023-11-21T08:15:29;5.05;;;2.88;;
79066;SDS011;68470;50.224;14.348;2023-11-21T08:17:57;7.30;;;3.22;;
79066;SDS011;68470;50.224;14.348;2023-11-21T08:20:24;4.57;;;3.08;;
79066;SDS011;68470;50.224;14.348;2023-11-21T08:22:50;8.73;;;3.40;;
79066;SDS011;68470;50.224;14.348;2023-11-21T08:25:18;6.15;;;3.30;;
79066;SDS011;68470;50.224;14.348;2023-11-21T08:27:45;6.65;;;3.65;;
79066;SDS011;68470;50.224;14.348;2023-11-21T08:30:11;6.65;;;2.97;;
79066;SDS011;68470;50.224;14.348;2023-11-21T08:32:39;5.65;;;3.22;;
79066;SDS011;68470;50.224;14.348;2023-11-21T08:35:07;4.30;;;2.70;;
79066;SDS011;68470;50.224;14.348;2023-11-21T08:37:33;6.95;;;3.00;;
79066;SDS011;68470;50.224;14.348;2023-11-21T08:42:28;7.05;;;3.33;;
79066;SDS011;68470;50.224;14.348;2023-11-21T08:44:55;6.13;;;3.00;;
79066;SDS011;68470;50.224;14.348;2023-11-21T08:47:23;4.03;;;2.42;;
79066;SDS011;68470;50.224;14.348;2023-11-21T08:49:50;4.90;;;2.97;;
79066;SDS011;68470;50.224;14.348;2023-11-21T08:54:49;4.88;;;2.83;;
79066;SDS011;68470;50.224;14.348;2023-11-21T08:57:24;6.35;;;2.80;;
79066;SDS011;68470;50.224;14.348;2023-11-21T08:59:50;4.65;;;2.42;;
79066;SDS011;68470;50.224;14.348;2023-11-21T09:02:21;5.30;;;2.88;;
79066;SDS011;68470;50.224;14.348;2023-11-21T09:04:48;4.95;;;2.60;;
79066;SDS011;68470;50.224;14.348;2023-11-21T09:07:16;5.20;;;2.80;;
79066;SDS011;68470;50.224;14.348;2023-11-21T09:09:41;4.05;;;2.55;;
79066;SDS011;68470;50.224;14.348;2023-11-21T09:12:07;4.43;;;2.50;;
79066;SDS011;68470;50.224;14.348;2023-11-21T09:14:33;6.38;;;2.88;;
79066;SDS011;68470;50.224;14.348;2023-11-21T09:16:59;4.65;;;2.60;;
79066;SDS011;68470;50.224;14.348;2023-11-21T09:19:25;5.30;;;2.60;;
79066;SDS011;68470;50.224;14.348;2023-11-21T09:21:51;4.38;;;2.60;;
79066;SDS011;68470;50.224;14.348;2023-11-21T09:24:17;4.60;;;2.50;;
79066;SDS011;68470;50.224;14.348;2023-11-21T09:26:42;4.70;;;2.45;;
79066;SDS011;68470;50.224;14.348;2023-11-21T09:29:08;3.40;;;2.20;;
79066;SDS011;68470;50.224;14.348;2023-11-21T09:31:33;6.15;;;3.50;;
79066;SDS011;68470;50.224;14.348;2023-11-21T09:33:59;4.35;;;2.58;;
79066;SDS011;68470;50.224;14.348;2023-11-21T09:36:25;3.88;;;2.28;;
79066;SDS011;68470;50.224;14.348;2023-11-21T09:38:53;4.00;;;2.80;;
79066;SDS011;68470;50.224;14.348;2023-11-21T09:41:29;3.38;;;2.22;;
79066;SDS011;68470;50.224;14.348;2023-11-21T09:44:05;3.78;;;2.30;;
79066;SDS011;68470;50.224;14.348;2023-11-21T09:46:36;3.22;;;2.30;;
79066;SDS011;68470;50.224;14.348;2023-11-21T09:49:04;3.15;;;2.20;;
79066;SDS011;68470;50.224;14.348;2023-11-21T09:51:33;3.75;;;2.65;;
79066;SDS011;68470;50.224;14.348;2023-11-21T09:54:03;4.07;;;2.60;;
79066;SDS011;68470;50.224;14.348;2023-11-21T09:56:34;3.63;;;2.22;;
79066;SDS011;68470;50.224;14.348;2023-11-21T09:59:01;6.85;;;2.38;;
79066;SDS011;68470;50.224;14.348;2023-11-21T10:01:32;4.55;;;2.20;;
79066;SDS011;68470;50.224;14.348;2023-11-21T10:04:00;3.35;;;2.38;;
79066;SDS011;68470;50.224;14.348;2023-11-21T10:06:26;6.13;;;2.58;;
79066;SDS011;68470;50.224;14.348;2023-11-21T10:18:32;6.63;;;3.33;;
79066;SDS011;68470;50.224;14.348;2023-11-21T10:20:59;5.60;;;3.15;;
79066;SDS011;68470;50.224;14.348;2023-11-21T10:23:26;4.03;;;2.45;;
79066;SDS011;68470;50.224;14.348;2023-11-21T10:25:53;5.13;;;2.72;;
79066;SDS011;68470;50.224;14.348;2023-11-21T10:28:20;6.05;;;3.15;;
79066;SDS011;68470;50.224;14.348;2023-11-21T10:30:46;5.13;;;3.00;;
79066;SDS011;68470;50.224;14.348;2023-11-21T10:33:12;5.93;;;3.35;;
79066;SDS011;68470;50.224;14.348;2023-11-21T10:35:38;6.18;;;2.53;;
79066;SDS011;68470;50.224;14.348;2023-11-21T10:38:05;6.65;;;3.90;;
79066;SDS011;68470;50.224;14.348;2023-11-21T10:40:31;6.35;;;2.70;;
79066;SDS011;68470;50.224;14.348;2023-11-21T10:43:05;6.45;;;3.05;;
79066;SDS011;68470;50.224;14.348;2023-11-21T10:45:34;5.78;;;3.40;;
79066;SDS011;68470;50.224;14.348;2023-11-21T10:48:00;5.47;;;2.92;;
79066;SDS011;68470;50.224;14.348;2023-11-21T10:50:26;6.57;;;3.08;;
79066;SDS011;68470;50.224;14.348;2023-11-21T10:52:51;5.32;;;2.92;;
79066;SDS011;68470;50.224;14.348;2023-11-21T10:55:19;4.78;;;3.00;;
79066;SDS011;68470;50.224;14.348;2023-11-21T10:57:48;10.10;;;4.10;;
79066;SDS011;68470;50.224;14.348;2023-11-21T11:00:16;6.95;;;3.97;;
79066;SDS011;68470;50.224;14.348;2023-11-21T11:02:45;4.43;;;3.00;;
79066;SDS011;68470;50.224;14.348;2023-11-21T11:05:19;11.43;;;6.28;;
79066;SDS011;68470;50.224;14.348;2023-11-21T11:07:47;7.35;;;3.80;;
79066;SDS011;68470;50.224;14.348;2023-11-21T11:10:23;9.05;;;5.38;;
79066;SDS011;68470;50.224;14.348;2023-11-21T11:12:51;10.73;;;5.72;;
79066;SDS011;68470;50.224;14.348;2023-11-21T11:15:19;5.97;;;3.53;;
79066;SDS011;68470;50.224;14.348;2023-11-21T11:17:45;6.40;;;3.10;;
79066;SDS011;68470;50.224;14.348;2023-11-21T11:20:12;5.97;;;3.80;;
79066;SDS011;68470;50.224;14.348;2023-11-21T11:22:50;5.80;;;4.43;;
79066;SDS011;68470;50.224;14.348;2023-11-21T11:28:31;6.38;;;2.83;;
79066;SDS011;68470;50.224;14.348;2023-11-21T11:31:21;6.28;;;4.15;;
79066;SDS011;68470;50.224;14.348;2023-11-21T11:37:02;6.63;;;3.92;;
79066;SDS011;68470;50.224;14.348;2023-11-21T11:42:05;6.35;;;3.75;;
79066;SDS011;68470;50.224;14.348;2023-11-21T11:47:30;4.97;;;3.13;;
79066;SDS011;68470;50.224;14.348;2023-11-21T11:57:43;4.93;;;2.78;;
79066;SDS011;68470;50.224;14.348;2023-11-21T12:02:46;6.50;;;3.20;;
79066;SDS011;68470;50.224;14.348;2023-11-21T12:05:14;5.90;;;4.45;;
79066;SDS011;68470;50.224;14.348;2023-11-21T12:07:42;14.23;;;6.85;;
79066;SDS011;68470;50.224;14.348;2023-11-21T12:10:15;7.03;;;4.00;;
79066;SDS011;68470;50.224;14.348;2023-11-21T12:12:46;8.73;;;5.75;;
79066;SDS011;68470;50.224;14.348;2023-11-21T12:15:15;5.50;;;3.50;;
79066;SDS011;68470;50.224;14.348;2023-11-21T12:17:42;9.98;;;4.05;;
79066;SDS011;68470;50.224;14.348;2023-11-21T12:20:09;8.05;;;4.60;;
79066;SDS011;68470;50.224;14.348;2023-11-21T12:25:32;11.05;;;6.05;;
79066;SDS011;68470;50.224;14.348;2023-11-21T12:27:58;5.88;;;3.33;;
79066;SDS011;68470;50.224;14.348;2023-11-21T12:30:26;11.85;;;5.68;;
79066;SDS011;68470;50.224;14.348;2023-11-21T12:32:56;7.00;;;4.20;;
79066;SDS011;68470;50.224;14.348;2023-11-21T12:35:26;6.97;;;3.40;;
79066;SDS011;68470;50.224;14.348;2023-11-21T12:37:55;7.75;;;4.80;;
79066;SDS011;68470;50.224;14.348;2023-11-21T12:40:24;9.05;;;5.15;;
79066;SDS011;68470;50.224;14.348;2023-11-21T12:42:55;12.40;;;7.63;;
79066;SDS011;68470;50.224;14.348;2023-11-21T12:45:25;12.32;;;7.00;;
79066;SDS011;68470;50.224;14.348;2023-11-21T12:50:25;7.65;;;5.13;;
79066;SDS011;68470;50.224;14.348;2023-11-21T12:53:00;15.30;;;7.22;;
79066;SDS011;68470;50.224;14.348;2023-11-21T12:55:32;16.13;;;8.25;;
79066;SDS011;68470;50.224;14.348;2023-11-21T12:58:00;24.13;;;12.52;;
79066;SDS011;68470;50.224;14.348;2023-11-21T13:00:42;11.13;;;7.45;;
79066;SDS011;68470;50.224;14.348;2023-11-21T13:03:11;14.32;;;7.53;;
79066;SDS011;68470;50.224;14.348;2023-11-21T13:05:42;11.23;;;6.38;;
79066;SDS011;68470;50.224;14.348;2023-11-21T13:08:16;12.18;;;7.20;;
79066;SDS011;68470;50.224;14.348;2023-11-21T13:10:45;13.63;;;6.75;;
79066;SDS011;68470;50.224;14.348;2023-11-21T13:13:34;6.78;;;5.13;;
79066;SDS011;68470;50.224;14.348;2023-11-21T13:16:00;12.32;;;5.93;;
79066;SDS011;68470;50.224;14.348;2023-11-21T13:18:28;7.80;;;5.15;;
79066;SDS011;68470;50.224;14.348;2023-11-21T13:21:00;7.82;;;3.88;;
79066;SDS011;68470;50.224;14.348;2023-11-21T13:23:39;10.70;;;6.30;;
79066;SDS011;68470;50.224;14.348;2023-11-21T13:26:06;7.90;;;5.15;;
79066;SDS011;68470;50.224;14.348;2023-11-21T13:28:34;11.50;;;4.57;;
79066;SDS011;68470;50.224;14.348;2023-11-21T13:31:02;12.02;;;6.03;;
79066;SDS011;68470;50.224;14.348;2023-11-21T13:33:41;12.13;;;6.65;;
79066;SDS011;68470;50.224;14.348;2023-11-21T13:36:09;11.80;;;5.72;;
79066;SDS011;68470;50.224;14.348;2023-11-21T13:38:35;7.07;;;4.00;;
79066;SDS011;68470;50.224;14.348;2023-11-21T13:41:02;17.20;;;9.38;;
79066;SDS011;68470;50.224;14.348;2023-11-21T13:43:32;10.23;;;5.50;;
79066;SDS011;68470;50.224;14.348;2023-11-21T13:45:58;10.57;;;5.95;;
79066;SDS011;68470;50.224;14.348;2023-11-21T13:48:36;8.80;;;5.15;;
79066;SDS011;68470;50.224;14.348;2023-11-21T13:51:16;9.45;;;5.65;;
79066;SDS011;68470;50.224;14.348;2023-11-21T13:53:46;9.35;;;5.10;;
79066;SDS011;68470;50.224;14.348;2023-11-21T13:56:17;9.07;;;6.07;;
79066;SDS011;68470;50.224;14.348;2023-11-21T13:58:49;9.55;;;6.05;;
79066;SDS011;68470;50.224;14.348;2023-11-21T14:01:19;9.50;;;4.90;;
79066;SDS011;68470;50.224;14.348;2023-11-21T14:03:59;10.80;;;6.63;;
79066;SDS011;68470;50.224;14.348;2023-11-21T14:06:46;9.02;;;4.88;;
79066;SDS011;68470;50.224;14.348;2023-11-21T14:09:15;9.40;;;5.53;;
79066;SDS011;68470;50.224;14.348;2023-11-21T14:11:48;11.80;;;4.85;;
79066;SDS011;68470;50.224;14.348;2023-11-21T14:14:21;9.50;;;5.15;;
79066;SDS011;68470;50.224;14.348;2023-11-21T14:16:47;7.32;;;5.18;;
79066;SDS011;68470;50.224;14.348;2023-11-21T14:21:42;41.83;;;18.02;;
79066;SDS011;68470;50.224;14.348;2023-11-21T14:24:09;17.88;;;9.88;;
79066;SDS011;68470;50.224;14.348;2023-11-21T14:26:35;53.85;;;27.85;;
79066;SDS011;68470;50.224;14.348;2023-11-21T14:29:01;40.10;;;14.32;;
79066;SDS011;68470;50.224;14.348;2023-11-21T14:31:46;30.00;;;12.43;;
79066;SDS011;68470;50.224;14.348;2023-11-21T14:34:17;32.15;;;14.68;;
79066;SDS011;68470;50.224;14.348;2023-11-21T14:36:46;14.75;;;8.73;;
79066;SDS011;68470;50.224;14.348;2023-11-21T14:39:12;44.20;;;17.50;;
79066;SDS011;68470;50.224;14.348;2023-11-21T14:41:51;9.25;;;4.57;;
79066;SDS011;68470;50.224;14.348;2023-11-21T14:44:25;29.35;;;14.23;;
79066;SDS011;68470;50.224;14.348;2023-11-21T14:46:54;46.25;;;18.08;;
79066;SDS011;68470;50.224;14.348;2023-11-21T14:49:22;27.88;;;13.55;;
79066;SDS011;68470;50.224;14.348;2023-11-21T14:51:51;11.55;;;6.75;;
79066;SDS011;68470;50.224;14.348;2023-11-21T14:54:29;7.25;;;4.35;;
79066;SDS011;68470;50.224;14.348;2023-11-21T14:57:12;18.70;;;9.02;;
79066;SDS011;68470;50.224;14.348;2023-11-21T14:59:44;9.07;;;6.10;;
79066;SDS011;68470;50.224;14.348;2023-11-21T15:02:17;7.38;;;4.32;;
79066;SDS011;68470;50.224;14.348;2023-11-21T15:04:48;13.95;;;6.57;;
79066;SDS011;68470;50.224;14.348;2023-11-21T15:07:17;25.15;;;10.60;;
79066;SDS011;68470;50.224;14.348;2023-11-21T15:09:42;13.05;;;7.32;;
79066;SDS011;68470;50.224;14.348;2023-11-21T15:12:10;14.32;;;6.97;;
79066;SDS011;68470;50.224;14.348;2023-11-21T15:14:46;22.30;;;8.95;;
79066;SDS011;68470;50.224;14.348;2023-11-21T15:17:15;6.22;;;3.53;;
79066;SDS011;68470;50.224;14.348;2023-11-21T15:19:56;19.80;;;8.15;;
79066;SDS011;68470;50.224;14.348;2023-11-21T15:22:21;18.27;;;7.28;;
79066;SDS011;68470;50.224;14.348;2023-11-21T15:24:48;18.33;;;7.65;;
79066;SDS011;68470;50.224;14.348;2023-11-21T15:27:15;8.85;;;4.93;;